Time;durP1;ratioP1;P1;durP2;ratioP2;P2;SDS_P1;SDS_P2;PMS_P1;PMS_P2;Temp;Humidity;BMP_temperature;BMP_pressure;BME280_temperature;BME280_humidity;BME280_pressure;Samples;Min_cycle;Max_cycle;Signal;HPM_P1;HPM_P2
2023/06/07 00:00:20;;;;;;;9.02;4.30;;;12.80;99.90;;;;;;6147083;23;20006;-79
2023/06/07 00:02:45;;;;;;;6.00;3.90;;;12.80;99.90;;;;;;6154572;23;20033;-79
2023/06/07 00:05:15;;;;;;;8.00;4.03;;;12.80;99.90;;;;;;6160939;23;20010;-79
2023/06/07 00:07:41;;;;;;;9.27;4.75;;;12.70;99.90;;;;;;6163247;23;20002;-79
2023/06/07 00:10:08;;;;;;;10.60;4.85;;;12.70;99.90;;;;;;6150307;23;20013;-79
2023/06/07 00:12:33;;;;;;;8.57;3.90;;;12.70;99.90;;;;;;6149740;23;20015;-79
2023/06/07 00:15:00;;;;;;;10.52;4.75;;;12.70;99.90;;;;;;6150298;23;20001;-79
2023/06/07 00:17:27;;;;;;;9.57;4.03;;;12.60;99.90;;;;;;6153535;23;20037;-79
2023/06/07 00:19:53;;;;;;;10.68;4.03;;;12.60;99.90;;;;;;6148996;23;20096;-80
2023/06/07 00:22:19;;;;;;;10.35;4.80;;;12.60;99.90;;;;;;6150038;23;20025;-79
2023/06/07 00:24:45;;;;;;;13.48;4.32;;;12.50;99.90;;;;;;6150930;23;20004;-79
2023/06/07 00:27:10;;;;;;;7.85;4.63;;;12.50;99.90;;;;;;6151042;23;20005;-80
2023/06/07 00:29:36;;;;;;;9.85;4.50;;;12.50;99.90;;;;;;6151436;23;20013;-79
2023/06/07 00:32:02;;;;;;;7.50;4.85;;;12.40;99.90;;;;;;6148336;23;20101;-79
2023/06/07 00:34:28;;;;;;;7.75;4.38;;;12.30;99.90;;;;;;6146091;23;20390;-79
2023/06/07 00:36:54;;;;;;;11.18;3.85;;;12.30;99.90;;;;;;6147434;23;20112;-79
2023/06/07 00:39:20;;;;;;;11.00;5.18;;;12.20;99.90;;;;;;6148792;23;20017;-78
2023/06/07 00:41:45;;;;;;;12.60;4.90;;;12.10;99.90;;;;;;6148961;23;20088;-79
2023/06/07 00:44:12;;;;;;;11.40;4.78;;;12.10;99.90;;;;;;6149037;23;20011;-79
2023/06/07 00:46:39;;;;;;;8.68;4.32;;;12.00;99.90;;;;;;6149739;23;20053;-79
2023/06/07 00:49:05;;;;;;;13.18;4.63;;;12.00;99.90;;;;;;6149939;23;20010;-79
2023/06/07 00:51:31;;;;;;;6.47;4.55;;;11.90;99.90;;;;;;6147896;23;20016;-80
2023/06/07 00:54:04;;;;;;;12.52;5.05;;;11.90;99.90;;;;;;6149811;23;20066;-79
2023/06/07 00:56:29;;;;;;;9.57;4.35;;;11.90;99.90;;;;;;6150266;23;20335;-79
2023/06/07 00:58:56;;;;;;;8.77;4.47;;;11.80;99.90;;;;;;6133135;23;20072;-79
2023/06/07 01:01:21;;;;;;;7.18;4.53;;;11.80;99.90;;;;;;6145121;23;20389;-79
2023/06/07 01:03:48;;;;;;;11.80;4.57;;;11.70;99.90;;;;;;6145169;23;20439;-79
2023/06/07 01:06:13;;;;;;;6.28;3.42;;;11.70;99.90;;;;;;6147858;23;20008;-79
2023/06/07 01:08:40;;;;;;;8.27;4.50;;;11.60;99.90;;;;;;6148219;23;20009;-79
2023/06/07 01:11:06;;;;;;;9.30;5.20;;;11.50;99.90;;;;;;6148727;23;20052;-79
2023/06/07 01:13:32;;;;;;;12.25;4.95;;;11.50;99.90;;;;;;6147488;23;20599;-79
2023/06/07 01:15:58;;;;;;;9.95;4.38;;;11.50;99.90;;;;;;6147145;23;20012;-78
2023/06/07 01:18:25;;;;;;;11.68;5.05;;;11.50;99.90;;;;;;6149130;23;20002;-79
2023/06/07 01:20:55;;;;;;;9.73;4.70;;;11.50;99.90;;;;;;6149027;23;20001;-79
2023/06/07 01:23:32;;;;;;;13.60;4.85;;;11.40;99.90;;;;;;6147318;23;20446;-79
2023/06/07 01:25:59;;;;;;;11.27;5.03;;;11.30;99.90;;;;;;6148761;23;20558;-78
2023/06/07 01:28:26;;;;;;;13.77;5.22;;;11.20;99.90;;;;;;6147076;23;20008;-79
2023/06/07 01:30:55;;;;;;;12.73;5.57;;;11.20;99.90;;;;;;6147177;23;20021;-79
2023/06/07 01:33:22;;;;;;;10.45;4.82;;;11.10;99.90;;;;;;6147443;23;20012;-78
2023/06/07 01:35:50;;;;;;;9.00;4.78;;;11.10;99.90;;;;;;6147306;23;20004;-78
2023/06/07 01:38:19;;;;;;;13.70;4.97;;;11.10;99.90;;;;;;6149089;23;20033;-78
2023/06/07 01:40:45;;;;;;;10.75;5.47;;;11.10;99.90;;;;;;6147268;23;20055;-79
2023/06/07 01:43:11;;;;;;;12.20;4.93;;;11.00;99.90;;;;;;6148704;23;20737;-79
2023/06/07 01:45:37;;;;;;;11.98;5.10;;;11.00;99.90;;;;;;6148174;23;19997;-79
2023/06/07 01:48:04;;;;;;;6.15;4.20;;;11.00;99.90;;;;;;6149695;23;19997;-78
2023/06/07 01:50:30;;;;;;;10.25;5.18;;;11.00;99.90;;;;;;6146672;23;20002;-79
2023/06/07 01:52:56;;;;;;;14.52;4.63;;;11.00;99.90;;;;;;6148921;23;20013;-79
2023/06/07 01:55:22;;;;;;;12.73;5.65;;;11.00;99.90;;;;;;6146366;23;20390;-78
2023/06/07 01:58:10;;;;;;;11.88;5.05;;;11.00;99.90;;;;;;6145602;23;20378;-79
2023/06/07 02:00:59;;;;;;;8.93;5.35;;;11.00;99.90;;;;;;6148873;23;20014;-79
2023/06/07 02:03:33;;;;;;;9.45;5.80;;;11.00;99.90;;;;;;6148521;23;20020;-79
2023/06/07 02:06:06;;;;;;;12.70;5.47;;;10.90;99.90;;;;;;6148489;23;19998;-79
2023/06/07 02:08:36;;;;;;;14.73;5.57;;;10.90;99.90;;;;;;6146751;23;20033;-79
2023/06/07 02:11:02;;;;;;;12.02;4.90;;;10.90;99.90;;;;;;6146950;23;20093;-78
2023/06/07 02:13:33;;;;;;;8.20;4.35;;;10.90;99.90;;;;;;6148714;23;20157;-78
2023/06/07 02:15:59;;;;;;;10.18;5.22;;;10.90;99.90;;;;;;6144320;23;20016;-79
2023/06/07 02:18:24;;;;;;;12.93;5.10;;;10.90;99.90;;;;;;6148120;23;20010;-79
2023/06/07 02:20:50;;;;;;;11.00;5.38;;;10.90;99.90;;;;;;6147268;23;20012;-79
2023/06/07 02:23:16;;;;;;;12.68;4.78;;;10.80;99.90;;;;;;6147169;23;20006;-79
2023/06/07 02:25:41;;;;;;;14.13;5.55;;;10.80;99.90;;;;;;6147388;23;20005;-79
2023/06/07 02:28:07;;;;;;;16.92;6.25;;;10.80;99.90;;;;;;6148315;23;20002;-79
2023/06/07 02:30:33;;;;;;;12.48;5.70;;;10.80;99.90;;;;;;6146637;23;20447;-78
2023/06/07 02:33:00;;;;;;;13.00;5.80;;;10.70;99.90;;;;;;6148678;23;20009;-78
2023/06/07 02:35:26;;;;;;;15.00;5.90;;;10.60;99.90;;;;;;6145739;23;20009;-79
2023/06/07 02:37:52;;;;;;;19.30;6.35;;;10.60;99.90;;;;;;6146632;23;20462;-78
2023/06/07 02:40:17;;;;;;;11.40;5.70;;;10.50;99.90;;;;;;6147127;23;20028;-78
2023/06/07 02:42:47;;;;;;;22.75;6.13;;;10.50;99.90;;;;;;6146794;23;20064;-79
2023/06/07 02:45:13;;;;;;;14.35;5.28;;;10.50;99.90;;;;;;6145575;23;20008;-79
2023/06/07 02:47:39;;;;;;;12.10;5.97;;;10.40;99.90;;;;;;6146844;23;19997;-79
2023/06/07 02:50:06;;;;;;;13.25;6.00;;;10.40;99.90;;;;;;6146207;23;20014;-79
2023/06/07 02:52:33;;;;;;;13.10;6.32;;;10.40;99.90;;;;;;6146819;23;20016;-80
2023/06/07 02:54:59;;;;;;;18.00;5.28;;;10.40;99.90;;;;;;6147219;23;20607;-79
2023/06/07 02:57:25;;;;;;;13.27;5.80;;;10.40;99.90;;;;;;6145976;23;20443;-79
2023/06/07 02:59:52;;;;;;;12.73;5.53;;;10.30;99.90;;;;;;6147492;23;20029;-79
2023/06/07 03:02:18;;;;;;;13.70;6.03;;;10.30;99.90;;;;;;6145499;23;20013;-78
2023/06/07 03:04:44;;;;;;;15.73;5.90;;;10.30;99.90;;;;;;6145166;23;20489;-80
2023/06/07 03:07:10;;;;;;;12.90;5.97;;;10.30;99.90;;;;;;6147482;23;20072;-79
2023/06/07 03:09:36;;;;;;;13.52;5.38;;;10.30;99.90;;;;;;6147001;23;20021;-80
2023/06/07 03:12:01;;;;;;;13.98;6.10;;;10.30;99.90;;;;;;6152810;23;20005;-79
2023/06/07 03:14:27;;;;;;;10.75;5.53;;;10.30;99.90;;;;;;6153356;23;20037;-80
2023/06/07 03:16:53;;;;;;;12.30;5.95;;;10.30;99.90;;;;;;6152256;23;20482;-80
2023/06/07 03:19:19;;;;;;;13.65;5.78;;;10.20;99.90;;;;;;6150765;23;20005;-80
2023/06/07 03:21:45;;;;;;;13.25;6.38;;;10.20;99.90;;;;;;6150062;23;20017;-80
2023/06/07 03:24:16;;;;;;;13.10;5.05;;;10.20;99.90;;;;;;6148524;23;20288;-80
2023/06/07 03:26:42;;;;;;;12.68;5.90;;;10.30;99.90;;;;;;6149254;23;20007;-80
2023/06/07 03:29:09;;;;;;;12.90;5.60;;;10.30;99.90;;;;;;6149251;23;20040;-80
2023/06/07 03:31:34;;;;;;;13.00;6.43;;;10.30;99.90;;;;;;6148340;23;20029;-80
2023/06/07 03:34:00;;;;;;;13.35;6.28;;;10.30;99.90;;;;;;6147126;23;20014;-79
2023/06/07 03:36:28;;;;;;;12.35;5.53;;;10.30;99.90;;;;;;6149453;23;20459;-79
2023/06/07 03:38:57;;;;;;;7.97;4.75;;;10.30;99.90;;;;;;6149371;23;20092;-80
2023/06/07 03:41:23;;;;;;;11.07;5.93;;;10.20;99.90;;;;;;6152610;23;20028;-80
2023/06/07 03:43:48;;;;;;;17.27;7.38;;;10.20;99.90;;;;;;6150514;23;20243;-80
2023/06/07 03:46:14;;;;;;;13.95;6.30;;;10.20;99.90;;;;;;6148447;23;20029;-79
2023/06/07 03:48:39;;;;;;;10.60;6.68;;;10.20;99.90;;;;;;6145765;23;20016;-79
2023/06/07 03:51:06;;;;;;;13.68;7.53;;;10.20;99.90;;;;;;6148542;23;20041;-80
2023/06/07 03:53:32;;;;;;;12.93;6.80;;;10.20;99.90;;;;;;6150837;23;20013;-79
2023/06/07 03:55:57;;;;;;;11.93;5.50;;;10.10;99.90;;;;;;6147929;23;20407;-79
2023/06/07 03:58:24;;;;;;;8.25;5.78;;;10.20;99.90;;;;;;6148817;23;20284;-79
2023/06/07 04:00:53;;;;;;;10.30;5.88;;;10.30;99.90;;;;;;6150411;23;20013;-79
2023/06/07 04:03:24;;;;;;;19.63;6.75;;;10.20;99.90;;;;;;6149579;23;20051;-79
2023/06/07 04:05:50;;;;;;;8.82;5.40;;;10.30;99.90;;;;;;6148913;23;20012;-79
2023/06/07 04:08:16;;;;;;;10.68;5.97;;;10.30;99.90;;;;;;6149062;23;20361;-79
2023/06/07 04:10:41;;;;;;;11.05;6.82;;;10.30;99.90;;;;;;6148059;23;20013;-79
2023/06/07 04:13:07;;;;;;;9.95;5.82;;;10.20;99.90;;;;;;6157952;23;20005;-78
2023/06/07 04:15:32;;;;;;;7.97;5.30;;;10.20;99.90;;;;;;6160589;23;20025;-79
2023/06/07 04:17:58;;;;;;;8.30;5.63;;;10.10;99.90;;;;;;6160011;23;20010;-80
2023/06/07 04:20:23;;;;;;;9.68;5.50;;;10.10;99.90;;;;;;6148856;23;20077;-79
2023/06/07 04:22:52;;;;;;;11.25;5.20;;;10.20;99.90;;;;;;6149176;23;20076;-79
2023/06/07 04:25:24;;;;;;;7.28;5.57;;;10.20;99.90;;;;;;6147701;23;20041;-80
2023/06/07 04:27:51;;;;;;;7.18;5.60;;;10.20;99.90;;;;;;6148934;23;20009;-79
2023/06/07 04:30:18;;;;;;;8.43;6.28;;;10.30;99.90;;;;;;6147925;23;20022;-79
2023/06/07 04:32:44;;;;;;;8.73;5.63;;;10.40;99.90;;;;;;6148372;23;20482;-79
2023/06/07 04:35:11;;;;;;;7.63;5.35;;;10.30;99.90;;;;;;6145579;23;20016;-80
2023/06/07 04:37:37;;;;;;;13.02;6.07;;;10.30;99.90;;;;;;6149385;23;20105;-79
2023/06/07 04:40:03;;;;;;;8.40;6.03;;;10.30;99.90;;;;;;6151615;23;20005;-80
2023/06/07 04:42:29;;;;;;;7.90;5.53;;;10.20;99.90;;;;;;6151904;23;20009;-80
2023/06/07 04:44:54;;;;;;;7.22;5.55;;;10.20;99.90;;;;;;6152588;23;20372;-80
2023/06/07 04:47:20;;;;;;;16.38;6.63;;;10.10;99.90;;;;;;6155383;23;20033;-79
2023/06/07 04:49:46;;;;;;;9.60;6.35;;;10.10;99.90;;;;;;6150052;23;20048;-79
2023/06/07 04:52:19;;;;;;;9.35;5.68;;;10.10;99.90;;;;;;6150620;23;20010;-79
2023/06/07 04:54:46;;;;;;;8.10;5.90;;;10.20;99.90;;;;;;6148783;23;20060;-80
2023/06/07 04:57:13;;;;;;;9.98;5.40;;;10.30;99.90;;;;;;6147786;23;20020;-79
2023/06/07 04:59:42;;;;;;;7.63;5.05;;;10.30;99.90;;;;;;6148590;23;20005;-80
2023/06/07 05:02:08;;;;;;;7.30;5.13;;;10.40;99.90;;;;;;6149009;23;20013;-79
2023/06/07 05:04:34;;;;;;;4.72;3.97;;;10.40;99.90;;;;;;6148014;23;20005;-79
2023/06/07 05:07:00;;;;;;;10.73;5.50;;;10.20;99.90;;;;;;6148554;23;20051;-80
2023/06/07 05:09:26;;;;;;;11.32;5.50;;;10.00;99.90;;;;;;6147029;23;20021;-80
2023/06/07 05:11:52;;;;;;;8.45;5.13;;;9.90;99.90;;;;;;6147954;23;20013;-80
2023/06/07 05:14:18;;;;;;;5.95;4.72;;;10.00;99.90;;;;;;6150414;23;20029;-79
2023/06/07 05:16:44;;;;;;;8.77;4.55;;;10.10;99.90;;;;;;6146948;23;20805;-79
2023/06/07 05:19:10;;;;;;;6.03;5.25;;;10.20;99.90;;;;;;6147186;23;20092;-79
2023/06/07 05:21:36;;;;;;;7.70;4.82;;;10.30;99.90;;;;;;6147508;23;20010;-80
2023/06/07 05:24:02;;;;;;;7.43;5.30;;;10.40;99.90;;;;;;6146701;23;20008;-80
2023/06/07 05:26:28;;;;;;;5.35;4.10;;;10.50;99.90;;;;;;6147535;23;20292;-78
2023/06/07 05:28:53;;;;;;;5.63;4.63;;;10.60;99.90;;;;;;6147020;23;20064;-79
2023/06/07 05:31:19;;;;;;;5.50;4.22;;;10.70;99.90;;;;;;6147231;23;20104;-80
2023/06/07 05:33:45;;;;;;;5.90;4.70;;;10.70;99.90;;;;;;6147409;23;20016;-80
2023/06/07 05:36:11;;;;;;;5.25;4.30;;;10.50;99.90;;;;;;6147153;23;20013;-79
2023/06/07 05:38:37;;;;;;;8.60;4.47;;;10.50;99.90;;;;;;6149278;23;20024;-80
2023/06/07 05:41:02;;;;;;;5.65;4.38;;;10.50;99.90;;;;;;6149355;23;20009;-80
2023/06/07 05:43:28;;;;;;;5.22;4.72;;;10.50;99.90;;;;;;6147741;23;20005;-79
2023/06/07 05:45:54;;;;;;;7.32;5.28;;;10.60;99.90;;;;;;6146273;23;20005;-79
2023/06/07 05:48:19;;;;;;;5.25;4.72;;;10.60;99.90;;;;;;6149678;23;20002;-80
2023/06/07 05:50:45;;;;;;;6.20;4.38;;;10.60;99.90;;;;;;6147989;23;20005;-79
2023/06/07 05:53:11;;;;;;;5.53;5.03;;;10.60;99.90;;;;;;6147792;23;20006;-80
2023/06/07 05:55:37;;;;;;;6.00;4.85;;;10.70;99.90;;;;;;6146446;23;20009;-79
2023/06/07 05:58:05;;;;;;;6.15;5.55;;;10.90;99.90;;;;;;6148502;23;20016;-78
2023/06/07 06:00:31;;;;;;;6.70;5.72;;;11.00;99.90;;;;;;6147449;23;20078;-79
2023/06/07 06:02:59;;;;;;;8.30;6.18;;;11.10;99.90;;;;;;6149329;23;20001;-79
2023/06/07 06:05:27;;;;;;;7.53;5.70;;;11.10;99.90;;;;;;6149239;23;20439;-78
2023/06/07 06:07:57;;;;;;;6.13;5.45;;;11.20;99.90;;;;;;6150218;23;20033;-81
2023/06/07 06:10:23;;;;;;;7.03;5.50;;;11.40;99.90;;;;;;6147237;23;20024;-80
2023/06/07 06:12:49;;;;;;;9.70;6.53;;;11.60;99.90;;;;;;6154023;23;20029;-79
2023/06/07 06:15:14;;;;;;;9.40;6.72;;;11.60;99.90;;;;;;6149820;23;20474;-79
2023/06/07 06:17:40;;;;;;;5.95;5.30;;;11.80;99.90;;;;;;6148397;23;20017;-79
2023/06/07 06:20:07;;;;;;;8.88;5.55;;;12.00;99.90;;;;;;6148069;23;20009;-79
2023/06/07 06:22:33;;;;;;;6.50;5.45;;;12.00;99.90;;;;;;6147778;23;20064;-79
2023/06/07 06:24:59;;;;;;;8.70;5.93;;;12.00;99.90;;;;;;6156748;23;19990;-79
2023/06/07 06:27:24;;;;;;;9.60;6.55;;;12.20;99.90;;;;;;6150292;23;20013;-79
2023/06/07 06:29:50;;;;;;;8.25;6.45;;;12.50;99.90;;;;;;6150232;23;20005;-80
2023/06/07 06:32:16;;;;;;;6.90;6.05;;;12.50;99.90;;;;;;6148399;23;20037;-79
2023/06/07 06:34:41;;;;;;;13.63;6.05;;;12.90;99.90;;;;;;6147625;23;20005;-79
2023/06/07 06:37:07;;;;;;;10.20;6.00;;;13.20;99.90;;;;;;6148992;23;20025;-80
2023/06/07 06:39:32;;;;;;;9.27;5.97;;;13.40;99.90;;;;;;6147543;23;20076;-82
2023/06/07 06:41:58;;;;;;;12.10;6.60;;;13.50;99.90;;;;;;6148615;23;20346;-80
2023/06/07 06:44:24;;;;;;;9.98;6.05;;;13.50;99.90;;;;;;6150384;23;20005;-80
2023/06/07 06:46:49;;;;;;;10.23;6.47;;;13.60;99.90;;;;;;6153565;23;20399;-80
2023/06/07 06:49:15;;;;;;;10.52;6.05;;;13.70;99.90;;;;;;6148265;23;20005;-81
2023/06/07 06:51:41;;;;;;;10.27;5.90;;;13.80;99.90;;;;;;6163182;23;20525;-81
2023/06/07 06:54:06;;;;;;;9.52;6.68;;;13.80;99.90;;;;;;6149343;23;20092;-80
2023/06/07 06:56:33;;;;;;;9.57;5.90;;;13.50;99.90;;;;;;6148672;23;20033;-80
2023/06/07 06:58:59;;;;;;;9.23;6.20;;;13.30;99.90;;;;;;6147685;23;20092;-80
2023/06/07 07:01:41;;;;;;;11.45;7.20;;;13.60;99.90;;;;;;6149716;23;20041;-79
2023/06/07 07:04:06;;;;;;;12.18;6.38;;;13.80;99.90;;;;;;6149958;23;20021;-79
2023/06/07 07:06:32;;;;;;;9.73;6.10;;;14.00;99.90;;;;;;6149383;23;20009;-79
2023/06/07 07:08:57;;;;;;;6.72;5.55;;;14.20;99.90;;;;;;6147823;23;20016;-80
2023/06/07 07:11:23;;;;;;;9.98;5.38;;;14.50;99.90;;;;;;6148449;23;20068;-79
2023/06/07 07:13:48;;;;;;;9.27;5.28;;;14.60;99.90;;;;;;6148259;23;20754;-80
2023/06/07 07:16:16;;;;;;;11.30;5.97;;;14.80;99.90;;;;;;6147974;23;20049;-81
2023/06/07 07:18:42;;;;;;;9.55;5.18;;;15.10;99.90;;;;;;6148537;23;20032;-80
2023/06/07 07:21:07;;;;;;;8.75;4.43;;;15.30;99.90;;;;;;6148564;23;20006;-79
2023/06/07 07:23:33;;;;;;;6.88;4.45;;;15.30;99.90;;;;;;6148264;23;20081;-80
2023/06/07 07:25:58;;;;;;;8.73;5.28;;;15.40;99.90;;;;;;6149826;23;20012;-79
2023/06/07 07:28:24;;;;;;;9.48;4.70;;;15.70;99.90;;;;;;6149861;23;20431;-81
2023/06/07 07:30:50;;;;;;;9.25;5.00;;;15.90;99.90;;;;;;6152724;23;20039;-79
2023/06/07 07:33:15;;;;;;;10.25;5.93;;;16.20;99.90;;;;;;6150155;23;20009;-79
2023/06/07 07:35:41;;;;;;;8.73;4.80;;;16.30;99.90;;;;;;6147151;23;20247;-80
2023/06/07 07:38:06;;;;;;;7.63;4.35;;;16.50;99.90;;;;;;6146319;23;20016;-79
2023/06/07 07:40:32;;;;;;;9.02;5.00;;;16.60;99.90;;;;;;6147240;23;20016;-79
2023/06/07 07:42:58;;;;;;;6.55;4.95;;;16.90;99.90;;;;;;6149222;23;20362;-81
2023/06/07 07:45:25;;;;;;;11.55;4.63;;;17.00;99.90;;;;;;6148141;23;20037;-80
2023/06/07 07:47:50;;;;;;;15.40;4.28;;;16.80;99.90;;;;;;6148517;23;20001;-80
2023/06/07 07:50:16;;;;;;;10.15;4.72;;;16.90;99.90;;;;;;6150794;23;20071;-81
2023/06/07 07:52:42;;;;;;;7.68;4.15;;;17.20;99.90;;;;;;6148617;23;20068;-81
2023/06/07 07:55:07;;;;;;;9.40;4.28;;;17.30;99.90;;;;;;6147335;23;20012;-80
2023/06/07 07:57:33;;;;;;;8.07;3.80;;;17.60;99.90;;;;;;6147358;23;20019;-80
2023/06/07 07:59:59;;;;;;;6.43;4.18;;;17.80;99.90;;;;;;6144679;23;20048;-80
2023/06/07 08:02:25;;;;;;;7.32;3.38;;;18.10;99.90;;;;;;6150683;23;20020;-79
2023/06/07 08:04:53;;;;;;;7.13;3.90;;;18.10;99.90;;;;;;6154206;23;20002;-79
2023/06/07 08:07:18;;;;;;;6.50;4.03;;;18.40;99.90;;;;;;6149577;23;20013;-80
2023/06/07 08:09:44;;;;;;;6.68;3.40;;;18.70;99.90;;;;;;6147488;23;20027;-78
2023/06/07 08:12:10;;;;;;;8.95;3.55;;;19.00;99.90;;;;;;6147523;23;20009;-78
2023/06/07 08:14:36;;;;;;;9.32;3.78;;;19.30;99.90;;;;;;6150605;23;20014;-78
2023/06/07 08:17:01;;;;;;;6.22;4.07;;;19.40;99.90;;;;;;6151038;23;20013;-77
2023/06/07 08:19:27;;;;;;;4.80;3.58;;;19.50;99.90;;;;;;6154875;23;20009;-78
2023/06/07 08:21:53;;;;;;;5.97;3.70;;;19.80;99.90;;;;;;6149409;23;20005;-79
2023/06/07 08:24:18;;;;;;;7.00;3.88;;;19.60;99.90;;;;;;6147900;23;20006;-78
2023/06/07 08:26:48;;;;;;;7.32;3.50;;;19.60;99.90;;;;;;6150576;23;20434;-78
2023/06/07 08:29:13;;;;;;;10.35;4.40;;;19.80;99.90;;;;;;6149665;23;20010;-78
2023/06/07 08:31:43;;;;;;;5.85;3.45;;;19.90;99.90;;;;;;6147343;23;20643;-78
2023/06/07 08:34:09;;;;;;;6.72;4.18;;;20.10;99.90;;;;;;6147068;23;20533;-79
2023/06/07 08:36:36;;;;;;;7.57;3.55;;;20.20;99.70;;;;;;6147663;23;20017;-78
2023/06/07 08:39:02;;;;;;;6.80;3.67;;;19.90;99.50;;;;;;6147192;23;20051;-80
2023/06/07 08:41:28;;;;;;;8.38;4.10;;;20.10;99.90;;;;;;6149027;23;20081;-78
2023/06/07 08:43:53;;;;;;;7.30;3.60;;;20.20;99.90;;;;;;6144909;23;20092;-77
2023/06/07 08:46:20;;;;;;;4.20;3.10;;;20.40;99.40;;;;;;6146088;23;20183;-78
2023/06/07 08:48:49;;;;;;;9.20;4.40;;;20.60;98.70;;;;;;6146443;23;20012;-77
2023/06/07 08:51:17;;;;;;;6.97;3.63;;;20.80;97.50;;;;;;6145967;23;20080;-77
2023/06/07 08:53:45;;;;;;;6.95;3.83;;;20.90;97.30;;;;;;6146179;23;20012;-78
2023/06/07 08:56:12;;;;;;;5.68;2.92;;;21.20;97.50;;;;;;6143967;23;20055;-78
2023/06/07 08:58:38;;;;;;;6.18;3.65;;;21.30;96.90;;;;;;6144253;23;20093;-78
2023/06/07 09:01:05;;;;;;;7.00;3.10;;;21.40;97.40;;;;;;6145531;23;20108;-78
2023/06/07 09:03:30;;;;;;;6.95;3.88;;;21.60;96.30;;;;;;6148214;23;20076;-79
2023/06/07 09:05:56;;;;;;;3.63;3.20;;;21.40;94.80;;;;;;6144827;23;20029;-77
2023/06/07 09:08:22;;;;;;;9.13;4.28;;;21.50;95.60;;;;;;6146178;23;20041;-79
2023/06/07 09:10:47;;;;;;;6.13;3.63;;;21.30;94.10;;;;;;6147913;23;20491;-77
2023/06/07 09:13:19;;;;;;;8.10;3.47;;;21.30;95.30;;;;;;6147333;23;20017;-77
2023/06/07 09:15:48;;;;;;;10.75;3.63;;;21.60;94.80;;;;;;6145733;23;20068;-79
2023/06/07 09:18:14;;;;;;;7.88;3.72;;;21.60;94.80;;;;;;6147489;23;20001;-78
2023/06/07 09:20:40;;;;;;;6.88;3.47;;;21.80;95.10;;;;;;6146203;23;20013;-78
2023/06/07 09:23:13;;;;;;;7.20;3.22;;;22.10;95.80;;;;;;6145846;23;20009;-79
2023/06/07 09:25:39;;;;;;;6.00;3.47;;;22.10;93.70;;;;;;6145475;23;20029;-77
2023/06/07 09:28:13;;;;;;;6.47;3.65;;;22.00;94.20;;;;;;6145638;23;20033;-78
2023/06/07 09:31:05;;;;;;;6.95;3.65;;;22.00;94.20;;;;;;6147301;23;20009;-78
2023/06/07 09:33:34;;;;;;;9.32;4.40;;;22.10;95.20;;;;;;6143475;23;20010;-78
2023/06/07 09:36:04;;;;;;;3.80;3.15;;;22.10;94.00;;;;;;6139826;23;20016;-77
2023/06/07 09:38:30;;;;;;;5.38;3.33;;;22.30;95.40;;;;;;6142274;23;20099;-78
2023/06/07 09:41:00;;;;;;;6.03;3.15;;;22.50;94.60;;;;;;6151862;23;20006;-78
2023/06/07 09:43:25;;;;;;;5.75;3.17;;;22.60;94.30;;;;;;6146380;23;20032;-78
2023/06/07 09:45:56;;;;;;;5.05;3.10;;;22.70;93.30;;;;;;6146469;23;20686;-78
2023/06/07 09:48:22;;;;;;;8.63;3.38;;;22.60;93.70;;;;;;6147087;23;20005;-78
2023/06/07 09:50:58;;;;;;;8.07;4.00;;;22.70;94.60;;;;;;6145553;23;20024;-78
2023/06/07 09:53:26;;;;;;;6.75;4.57;;;22.80;93.90;;;;;;6146015;23;20005;-78
2023/06/07 09:55:52;;;;;;;8.30;4.10;;;22.70;93.30;;;;;;6145259;23;20316;-78
2023/06/07 09:58:19;;;;;;;5.45;4.28;;;22.70;93.90;;;;;;6147343;23;20023;-79
2023/06/07 10:00:45;;;;;;;9.07;4.80;;;22.60;93.30;;;;;;6144550;23;20021;-77
2023/06/07 10:03:12;;;;;;;5.75;4.13;;;22.50;93.40;;;;;;6144571;23;20017;-77
2023/06/07 10:05:39;;;;;;;6.30;4.35;;;22.50;93.30;;;;;;6144439;23;20016;-77
2023/06/07 10:08:06;;;;;;;9.30;4.75;;;22.50;93.60;;;;;;6147340;23;20006;-77
2023/06/07 10:10:34;;;;;;;5.80;4.35;;;22.40;94.00;;;;;;6147282;23;20009;-77
2023/06/07 10:13:04;;;;;;;7.32;4.95;;;22.50;94.90;;;;;;6145387;23;20005;-79
2023/06/07 10:15:30;;;;;;;7.95;4.75;;;22.60;93.80;;;;;;6145068;23;20012;-79
2023/06/07 10:18:21;;;;;;;8.07;5.40;;;22.60;93.90;;;;;;6147669;23;20001;-79
2023/06/07 10:21:12;;;;;;;6.00;5.22;;;22.50;94.60;;;;;;6145103;23;20528;-78
2023/06/07 10:23:46;;;;;;;7.00;4.70;;;22.40;94.70;;;;;;6144440;23;20009;-79
2023/06/07 10:26:41;;;;;;;7.10;4.90;;;22.50;94.40;;;;;;6145304;23;20005;-78
2023/06/07 10:29:11;;;;;;;11.52;5.07;;;22.60;95.40;;;;;;6136197;23;20013;-79
2023/06/07 10:31:43;;;;;;;5.80;3.92;;;22.60;93.70;;;;;;6144471;23;20018;-78
2023/06/07 10:34:09;;;;;;;7.00;3.78;;;22.60;95.20;;;;;;6144226;23;20470;-78
2023/06/07 10:36:39;;;;;;;6.60;3.75;;;22.70;96.00;;;;;;6147425;23;20124;-78
2023/06/07 10:39:06;;;;;;;4.68;3.60;;;22.80;93.90;;;;;;6147821;23;20009;-77
2023/06/07 10:41:34;;;;;;;4.85;3.15;;;22.70;92.80;;;;;;6147494;23;20491;-78
2023/06/07 10:44:01;;;;;;;6.57;3.35;;;22.60;94.70;;;;;;6146635;23;20006;-80
2023/06/07 10:46:27;;;;;;;6.13;3.33;;;22.60;93.20;;;;;;6149163;23;20088;-78
2023/06/07 10:48:55;;;;;;;6.47;3.10;;;22.50;94.50;;;;;;6148872;23;20483;-80
2023/06/07 10:51:51;;;;;;;5.07;3.15;;;22.60;93.00;;;;;;6149630;23;20016;-78
2023/06/07 10:54:31;;;;;;;6.37;2.70;;;22.60;92.90;;;;;;6147438;23;20489;-78
2023/06/07 10:56:59;;;;;;;4.70;2.53;;;22.60;94.40;;;;;;6150064;23;20435;-80
2023/06/07 10:59:26;;;;;;;6.53;3.03;;;22.70;93.20;;;;;;6147883;23;20132;-79
2023/06/07 11:01:54;;;;;;;5.15;2.85;;;22.60;93.30;;;;;;6149541;23;20021;-79
2023/06/07 11:04:36;;;;;;;4.38;2.67;;;22.70;92.80;;;;;;6150419;23;20052;-78
2023/06/07 11:07:22;;;;;;;3.20;2.65;;;22.80;94.00;;;;;;6150203;23;20013;-79
2023/06/07 11:09:48;;;;;;;;;;;22.70;93.60;;;;;;6150286;23;20014;-79
2023/06/07 11:12:38;;;;;;;10.15;2.90;;;22.70;93.00;;;;;;6149128;23;19986;-79
2023/06/07 11:15:21;;;;;;;4.88;3.15;;;22.80;93.50;;;;;;6148039;23;20002;-82
2023/06/07 11:17:53;;;;;;;6.53;3.03;;;22.80;92.30;;;;;;6151862;23;20009;-79
2023/06/07 11:20:40;;;;;;;7.28;3.65;;;22.80;92.30;;;;;;6149792;23;20513;-79
2023/06/07 11:23:26;;;;;;;2.42;2.00;;;22.80;92.50;;;;;;6133219;23;20009;-79
2023/06/07 11:26:08;;;;;;;5.05;2.30;;;22.90;92.80;;;;;;6147485;23;20005;-81
2023/06/07 11:28:37;;;;;;;5.38;2.80;;;22.90;92.60;;;;;;6149278;23;20002;-81
2023/06/07 11:31:08;;;;;;;5.68;3.30;;;22.90;93.60;;;;;;6149553;23;20024;-79
2023/06/07 11:33:34;;;;;;;3.97;2.78;;;23.00;91.40;;;;;;6149438;23;20001;-78
2023/06/07 11:36:01;;;;;;;3.70;2.42;;;23.00;92.50;;;;;;6148860;23;20058;-77
2023/06/07 11:38:27;;;;;;;6.85;2.65;;;23.00;91.60;;;;;;6151545;23;20052;-80
2023/06/07 11:40:53;;;;;;;4.97;3.05;;;23.00;91.30;;;;;;6150986;23;20049;-77
2023/06/07 11:43:29;;;;;;;4.57;2.83;;;23.10;90.70;;;;;;6150374;23;19998;-77
2023/06/07 11:45:56;;;;;;;6.32;2.92;;;23.00;90.30;;;;;;6148674;23;20658;-77
2023/06/07 11:48:28;;;;;;;5.88;2.95;;;22.90;90.60;;;;;;6148749;23;20002;-78
2023/06/07 11:50:54;;;;;;;5.97;2.95;;;23.00;89.80;;;;;;6149927;23;20064;-77
2023/06/07 11:53:21;;;;;;;3.95;2.35;;;23.00;90.60;;;;;;6147894;23;20009;-77
2023/06/07 11:55:47;;;;;;;3.22;2.72;;;23.20;90.60;;;;;;6149311;23;20010;-77
2023/06/07 11:58:13;;;;;;;4.40;2.97;;;23.30;90.30;;;;;;6149040;23;20414;-78
2023/06/07 12:00:41;;;;;;;5.90;2.83;;;23.40;89.30;;;;;;6147272;23;20112;-78
2023/06/07 12:03:07;;;;;;;4.60;2.60;;;23.50;91.40;;;;;;6148107;23;20227;-78
2023/06/07 12:05:34;;;;;;;5.28;2.53;;;23.60;91.50;;;;;;6149923;23;20076;-77
2023/06/07 12:08:04;;;;;;;10.10;2.90;;;23.70;89.00;;;;;;6151168;23;20062;-78
2023/06/07 12:10:30;;;;;;;7.13;3.15;;;23.60;89.40;;;;;;6150613;23;20005;-78
2023/06/07 12:13:18;;;;;;;4.95;2.88;;;23.70;88.80;;;;;;6149103;23;20013;-77
2023/06/07 12:15:46;;;;;;;4.55;2.17;;;23.70;88.40;;;;;;6147520;23;20009;-77
2023/06/07 12:18:16;;;;;;;5.90;3.28;;;23.70;87.40;;;;;;6148017;23;20339;-78
2023/06/07 12:20:42;;;;;;;3.35;2.42;;;23.80;86.20;;;;;;6148392;23;20009;-78
2023/06/07 12:23:10;;;;;;;6.30;2.95;;;23.70;86.90;;;;;;6149578;23;20489;-79
2023/06/07 12:25:36;;;;;;;5.40;2.45;;;23.80;86.40;;;;;;6146625;23;20013;-78
2023/06/07 12:28:20;;;;;;;5.22;2.50;;;23.90;88.10;;;;;;6149361;23;20036;-80
2023/06/07 12:30:47;;;;;;;7.22;3.47;;;23.90;87.10;;;;;;6149753;23;20065;-79
2023/06/07 12:33:14;;;;;;;5.97;2.92;;;23.90;86.60;;;;;;6150436;23;20001;-78
2023/06/07 12:35:45;;;;;;;5.18;2.50;;;23.70;85.90;;;;;;6144198;23;20010;-77
2023/06/07 12:38:10;;;;;;;10.00;3.17;;;23.80;86.00;;;;;;6150321;23;20012;-78
2023/06/07 12:40:36;;;;;;;4.63;2.85;;;24.00;86.30;;;;;;6151383;23;20009;-77
2023/06/07 12:43:03;;;;;;;8.98;5.40;;;24.00;86.90;;;;;;6156900;23;20012;-77
2023/06/07 12:45:29;;;;;;;5.40;2.90;;;24.10;86.30;;;;;;6154651;23;20020;-77